sensor_id;sensor_type;location;lat;lon;timestamp;temperature;humidity
10437;DHT22;5265;50.006;9.202;2022-08-19T00:00:40;19.40;99.90
10437;DHT22;5265;50.006;9.202;2022-08-19T00:03:07;19.40;99.90
10437;DHT22;5265;50.006;9.202;2022-08-19T00:05:35;19.30;99.90
10437;DHT22;5265;50.006;9.202;2022-08-19T00:08:02;19.30;99.90
10437;DHT22;5265;50.006;9.202;2022-08-19T00:10:30;19.30;99.90
10437;DHT22;5265;50.006;9.202;2022-08-19T00:12:57;19.30;99.90
10437;DHT22;5265;50.006;9.202;2022-08-19T00:15:24;19.30;99.90
10437;DHT22;5265;50.006;9.202;2022-08-19T00:17:53;19.30;99.90
10437;DHT22;5265;50.006;9.202;2022-08-19T00:20:21;19.40;99.90
10437;DHT22;5265;50.006;9.202;2022-08-19T00:22:48;19.50;99.90
10437;DHT22;5265;50.006;9.202;2022-08-19T00:25:15;19.50;99.90
10437;DHT22;5265;50.006;9.202;2022-08-19T00:27:42;19.50;99.90
10437;DHT22;5265;50.006;9.202;2022-08-19T00:30:10;19.40;99.90
10437;DHT22;5265;50.006;9.202;2022-08-19T00:32:38;19.30;99.90
10437;DHT22;5265;50.006;9.202;2022-08-19T00:35:07;19.30;99.90
10437;DHT22;5265;50.006;9.202;2022-08-19T00:37:35;19.20;99.90
10437;DHT22;5265;50.006;9.202;2022-08-19T00:40:03;19.20;99.90
10437;DHT22;5265;50.006;9.202;2022-08-19T00:42:31;19.30;99.90
10437;DHT22;5265;50.006;9.202;2022-08-19T00:44:58;19.30;99.90
10437;DHT22;5265;50.006;9.202;2022-08-19T00:47:25;19.30;99.90
10437;DHT22;5265;50.006;9.202;2022-08-19T00:49:53;19.30;99.90
10437;DHT22;5265;50.006;9.202;2022-08-19T00:52:24;19.30;99.90
10437;DHT22;5265;50.006;9.202;2022-08-19T00:54:52;19.30;99.90
10437;DHT22;5265;50.006;9.202;2022-08-19T00:57:21;19.30;99.90
10437;DHT22;5265;50.006;9.202;2022-08-19T00:59:51;19.30;99.90
10437;DHT22;5265;50.006;9.202;2022-08-19T01:02:19;19.30;99.90
10437;DHT22;5265;50.006;9.202;2022-08-19T01:04:46;19.30;99.90
10437;DHT22;5265;50.006;9.202;2022-08-19T01:07:14;19.30;99.90
10437;DHT22;5265;50.006;9.202;2022-08-19T01:09:42;19.20;99.90
10437;DHT22;5265;50.006;9.202;2022-08-19T01:12:09;19.30;99.90
10437;DHT22;5265;50.006;9.202;2022-08-19T01:14:37;19.30;99.90
10437;DHT22;5265;50.006;9.202;2022-08-19T01:17:05;19.30;99.90
10437;DHT22;5265;50.006;9.202;2022-08-19T01:19:33;19.30;99.90
10437;DHT22;5265;50.006;9.202;2022-08-19T01:22:03;19.40;99.90
10437;DHT22;5265;50.006;9.202;2022-08-19T01:24:33;19.50;99.90
10437;DHT22;5265;50.006;9.202;2022-08-19T01:27:03;19.50;99.90
10437;DHT22;5265;50.006;9.202;2022-08-19T01:29:31;19.50;99.90
10437;DHT22;5265;50.006;9.202;2022-08-19T01:31:58;19.60;99.90
10437;DHT22;5265;50.006;9.202;2022-08-19T01:34:25;19.50;99.90
10437;DHT22;5265;50.006;9.202;2022-08-19T01:36:53;19.40;99.90
10437;DHT22;5265;50.006;9.202;2022-08-19T01:39:21;19.40;99.90
10437;DHT22;5265;50.006;9.202;2022-08-19T01:41:50;19.40;99.90
10437;DHT22;5265;50.006;9.202;2022-08-19T01:44:20;19.30;99.90
10437;DHT22;5265;50.006;9.202;2022-08-19T01:46:50;19.30;99.90
10437;DHT22;5265;50.006;9.202;2022-08-19T01:49:19;19.30;99.90
10437;DHT22;5265;50.006;9.202;2022-08-19T01:51:46;19.20;99.90
10437;DHT22;5265;50.006;9.202;2022-08-19T01:54:15;19.20;99.90
10437;DHT22;5265;50.006;9.202;2022-08-19T01:56:43;19.30;99.90
10437;DHT22;5265;50.006;9.202;2022-08-19T01:59:12;19.20;99.90
10437;DHT22;5265;50.006;9.202;2022-08-19T02:01:39;19.30;99.90
10437;DHT22;5265;50.006;9.202;2022-08-19T02:04:07;19.30;99.90
10437;DHT22;5265;50.006;9.202;2022-08-19T02:06:34;19.30;99.90
10437;DHT22;5265;50.006;9.202;2022-08-19T02:09:02;19.30;99.90
10437;DHT22;5265;50.006;9.202;2022-08-19T02:11:29;19.40;99.90
10437;DHT22;5265;50.006;9.202;2022-08-19T02:13:57;19.30;99.90
10437;DHT22;5265;50.006;9.202;2022-08-19T02:16:26;19.30;99.90
10437;DHT22;5265;50.006;9.202;2022-08-19T02:18:53;19.30;99.90
10437;DHT22;5265;50.006;9.202;2022-08-19T02:21:21;19.30;99.90
10437;DHT22;5265;50.006;9.202;2022-08-19T02:23:48;19.40;99.90
10437;DHT22;5265;50.006;9.202;2022-08-19T02:26:16;19.50;99.90
10437;DHT22;5265;50.006;9.202;2022-08-19T02:28:44;19.40;99.90
10437;DHT22;5265;50.006;9.202;2022-08-19T02:31:12;19.40;99.90
10437;DHT22;5265;50.006;9.202;2022-08-19T02:33:41;19.40;99.90
10437;DHT22;5265;50.006;9.202;2022-08-19T02:36:10;19.40;99.90
10437;DHT22;5265;50.006;9.202;2022-08-19T02:38:38;19.30;99.90
10437;DHT22;5265;50.006;9.202;2022-08-19T02:41:05;19.30;99.90
10437;DHT22;5265;50.006;9.202;2022-08-19T02:43:35;19.30;99.90
10437;DHT22;5265;50.006;9.202;2022-08-19T02:46:10;19.20;99.90
10437;DHT22;5265;50.006;9.202;2022-08-19T02:48:38;19.20;99.90
10437;DHT22;5265;50.006;9.202;2022-08-19T02:51:06;19.20;99.90
10437;DHT22;5265;50.006;9.202;2022-08-19T02:53:33;19.20;99.90
10437;DHT22;5265;50.006;9.202;2022-08-19T02:56:01;19.20;99.90
10437;DHT22;5265;50.006;9.202;2022-08-19T02:58:28;19.20;99.90
10437;DHT22;5265;50.006;9.202;2022-08-19T03:00:55;19.20;99.90
10437;DHT22;5265;50.006;9.202;2022-08-19T03:03:23;19.20;99.90
10437;DHT22;5265;50.006;9.202;2022-08-19T03:05:50;19.30;99.90
10437;DHT22;5265;50.006;9.202;2022-08-19T03:08:19;19.20;99.90
10437;DHT22;5265;50.006;9.202;2022-08-19T03:10:46;19.20;99.90
10437;DHT22;5265;50.006;9.202;2022-08-19T03:13:15;19.20;99.90
10437;DHT22;5265;50.006;9.202;2022-08-19T03:15:43;19.10;99.90
10437;DHT22;5265;50.006;9.202;2022-08-19T03:18:10;19.20;99.90
10437;DHT22;5265;50.006;9.202;2022-08-19T03:20:42;19.20;99.90
10437;DHT22;5265;50.006;9.202;2022-08-19T03:23:09;19.20;99.90
10437;DHT22;5265;50.006;9.202;2022-08-19T03:25:40;19.20;99.90
10437;DHT22;5265;50.006;9.202;2022-08-19T03:28:09;19.20;99.90
10437;DHT22;5265;50.006;9.202;2022-08-19T03:30:37;19.20;99.90
10437;DHT22;5265;50.006;9.202;2022-08-19T03:33:06;19.20;99.90
10437;DHT22;5265;50.006;9.202;2022-08-19T03:35:33;19.10;99.90
10437;DHT22;5265;50.006;9.202;2022-08-19T03:38:02;19.10;99.90
10437;DHT22;5265;50.006;9.202;2022-08-19T03:40:29;19.10;99.90
10437;DHT22;5265;50.006;9.202;2022-08-19T03:42:58;19.20;99.90
10437;DHT22;5265;50.006;9.202;2022-08-19T03:45:25;19.20;99.90
10437;DHT22;5265;50.006;9.202;2022-08-19T03:47:53;19.20;99.90
10437;DHT22;5265;50.006;9.202;2022-08-19T03:50:20;19.20;99.90
10437;DHT22;5265;50.006;9.202;2022-08-19T03:52:48;19.20;99.90
10437;DHT22;5265;50.006;9.202;2022-08-19T03:55:15;19.30;99.90
10437;DHT22;5265;50.006;9.202;2022-08-19T03:57:42;19.30;99.90
10437;DHT22;5265;50.006;9.202;2022-08-19T04:00:12;19.40;99.90
10437;DHT22;5265;50.006;9.202;2022-08-19T04:02:40;19.30;99.90
10437;DHT22;5265;50.006;9.202;2022-08-19T04:05:07;19.30;99.90
10437;DHT22;5265;50.006;9.202;2022-08-19T04:07:34;19.30;99.90
10437;DHT22;5265;50.006;9.202;2022-08-19T04:10:02;19.30;99.90
10437;DHT22;5265;50.006;9.202;2022-08-19T04:12:30;19.30;99.90
10437;DHT22;5265;50.006;9.202;2022-08-19T04:14:57;19.30;99.90
10437;DHT22;5265;50.006;9.202;2022-08-19T04:17:26;19.40;99.90
10437;DHT22;5265;50.006;9.202;2022-08-19T04:19:53;19.40;99.90
10437;DHT22;5265;50.006;9.202;2022-08-19T04:22:20;19.40;99.90
10437;DHT22;5265;50.006;9.202;2022-08-19T04:24:47;19.40;99.90
10437;DHT22;5265;50.006;9.202;2022-08-19T04:27:15;19.40;99.90
10437;DHT22;5265;50.006;9.202;2022-08-19T04:29:42;19.40;99.90
10437;DHT22;5265;50.006;9.202;2022-08-19T04:32:09;19.40;99.90
10437;DHT22;5265;50.006;9.202;2022-08-19T04:34:37;19.40;99.90
10437;DHT22;5265;50.006;9.202;2022-08-19T04:37:05;19.40;99.90
10437;DHT22;5265;50.006;9.202;2022-08-19T04:39:33;19.40;99.90
10437;DHT22;5265;50.006;9.202;2022-08-19T04:42:18;19.40;99.90
10437;DHT22;5265;50.006;9.202;2022-08-19T04:45:03;19.50;99.90
10437;DHT22;5265;50.006;9.202;2022-08-19T04:47:31;19.40;99.90
10437;DHT22;5265;50.006;9.202;2022-08-19T04:50:00;19.40;99.90
10437;DHT22;5265;50.006;9.202;2022-08-19T04:52:27;19.50;99.90
10437;DHT22;5265;50.006;9.202;2022-08-19T04:54:54;19.40;99.90
10437;DHT22;5265;50.006;9.202;2022-08-19T04:57:21;19.40;99.90
10437;DHT22;5265;50.006;9.202;2022-08-19T04:59:49;19.40;99.90
10437;DHT22;5265;50.006;9.202;2022-08-19T05:02:20;19.40;99.90
10437;DHT22;5265;50.006;9.202;2022-08-19T05:04:51;19.50;99.90
10437;DHT22;5265;50.006;9.202;2022-08-19T05:07:19;19.50;99.90
10437;DHT22;5265;50.006;9.202;2022-08-19T05:09:46;19.50;99.90
10437;DHT22;5265;50.006;9.202;2022-08-19T05:12:14;19.60;99.90
10437;DHT22;5265;50.006;9.202;2022-08-19T05:14:41;19.60;99.90
10437;DHT22;5265;50.006;9.202;2022-08-19T05:17:08;19.60;99.90
10437;DHT22;5265;50.006;9.202;2022-08-19T05:19:35;19.60;99.90
10437;DHT22;5265;50.006;9.202;2022-08-19T05:22:20;19.50;99.90
10437;DHT22;5265;50.006;9.202;2022-08-19T05:25:02;19.50;99.90
10437;DHT22;5265;50.006;9.202;2022-08-19T05:27:29;19.70;99.90
10437;DHT22;5265;50.006;9.202;2022-08-19T05:29:56;19.60;99.90
10437;DHT22;5265;50.006;9.202;2022-08-19T05:32:24;19.60;99.90
10437;DHT22;5265;50.006;9.202;2022-08-19T05:34:51;19.50;99.90
10437;DHT22;5265;50.006;9.202;2022-08-19T05:37:18;19.60;99.90
10437;DHT22;5265;50.006;9.202;2022-08-19T05:39:46;19.60;99.90
10437;DHT22;5265;50.006;9.202;2022-08-19T05:42:15;19.60;99.90
10437;DHT22;5265;50.006;9.202;2022-08-19T05:44:42;19.60;99.90
10437;DHT22;5265;50.006;9.202;2022-08-19T05:47:11;19.60;99.90
10437;DHT22;5265;50.006;9.202;2022-08-19T05:49:41;19.70;99.90
10437;DHT22;5265;50.006;9.202;2022-08-19T05:52:08;19.80;99.90
10437;DHT22;5265;50.006;9.202;2022-08-19T05:54:36;19.80;99.90
10437;DHT22;5265;50.006;9.202;2022-08-19T05:57:07;19.80;99.90
10437;DHT22;5265;50.006;9.202;2022-08-19T05:59:34;19.90;99.90
10437;DHT22;5265;50.006;9.202;2022-08-19T06:02:01;20.00;99.90
10437;DHT22;5265;50.006;9.202;2022-08-19T06:04:28;20.00;99.90
10437;DHT22;5265;50.006;9.202;2022-08-19T06:06:55;20.10;99.90
10437;DHT22;5265;50.006;9.202;2022-08-19T06:09:23;20.10;99.90
10437;DHT22;5265;50.006;9.202;2022-08-19T06:11:51;20.10;99.90
10437;DHT22;5265;50.006;9.202;2022-08-19T06:14:21;20.20;99.90
10437;DHT22;5265;50.006;9.202;2022-08-19T06:16:49;20.20;99.90
10437;DHT22;5265;50.006;9.202;2022-08-19T06:19:18;20.20;99.90
10437;DHT22;5265;50.006;9.202;2022-08-19T06:21:46;20.30;99.90
10437;DHT22;5265;50.006;9.202;2022-08-19T06:24:15;20.30;99.90
10437;DHT22;5265;50.006;9.202;2022-08-19T06:26:44;20.30;99.90
10437;DHT22;5265;50.006;9.202;2022-08-19T06:29:12;20.30;99.90
10437;DHT22;5265;50.006;9.202;2022-08-19T06:31:42;20.40;99.90
10437;DHT22;5265;50.006;9.202;2022-08-19T06:34:09;20.40;99.90
10437;DHT22;5265;50.006;9.202;2022-08-19T06:36:37;20.50;99.90
10437;DHT22;5265;50.006;9.202;2022-08-19T06:39:06;20.60;99.90
10437;DHT22;5265;50.006;9.202;2022-08-19T06:41:34;20.60;99.90
10437;DHT22;5265;50.006;9.202;2022-08-19T06:44:02;20.50;99.90
10437;DHT22;5265;50.006;9.202;2022-08-19T06:46:29;20.60;99.90
10437;DHT22;5265;50.006;9.202;2022-08-19T06:48:58;20.60;99.90
10437;DHT22;5265;50.006;9.202;2022-08-19T06:51:26;20.80;99.90
10437;DHT22;5265;50.006;9.202;2022-08-19T06:53:54;20.80;99.90
10437;DHT22;5265;50.006;9.202;2022-08-19T06:56:24;20.80;99.90
10437;DHT22;5265;50.006;9.202;2022-08-19T06:58:56;20.80;99.90
10437;DHT22;5265;50.006;9.202;2022-08-19T07:01:23;20.90;99.90
10437;DHT22;5265;50.006;9.202;2022-08-19T07:03:50;20.80;99.90
10437;DHT22;5265;50.006;9.202;2022-08-19T07:06:19;20.80;99.90
10437;DHT22;5265;50.006;9.202;2022-08-19T07:08:46;20.70;99.90
10437;DHT22;5265;50.006;9.202;2022-08-19T07:11:16;20.70;99.90
10437;DHT22;5265;50.006;9.202;2022-08-19T07:13:44;20.70;99.90
10437;DHT22;5265;50.006;9.202;2022-08-19T07:16:12;20.70;99.90
10437;DHT22;5265;50.006;9.202;2022-08-19T07:18:39;20.70;99.90
10437;DHT22;5265;50.006;9.202;2022-08-19T07:21:07;20.80;99.90
10437;DHT22;5265;50.006;9.202;2022-08-19T07:23:36;20.80;99.90
10437;DHT22;5265;50.006;9.202;2022-08-19T07:26:04;20.90;99.90
10437;DHT22;5265;50.006;9.202;2022-08-19T07:28:32;21.00;99.90
10437;DHT22;5265;50.006;9.202;2022-08-19T07:30:59;21.00;99.90
10437;DHT22;5265;50.006;9.202;2022-08-19T07:33:27;21.00;99.90
10437;DHT22;5265;50.006;9.202;2022-08-19T07:35:58;20.90;99.90
10437;DHT22;5265;50.006;9.202;2022-08-19T07:38:25;20.90;99.90
10437;DHT22;5265;50.006;9.202;2022-08-19T07:40:53;21.00;99.90
10437;DHT22;5265;50.006;9.202;2022-08-19T07:43:20;21.00;99.90
10437;DHT22;5265;50.006;9.202;2022-08-19T07:45:51;21.10;99.90
10437;DHT22;5265;50.006;9.202;2022-08-19T07:48:18;21.20;99.90
10437;DHT22;5265;50.006;9.202;2022-08-19T07:50:46;21.30;99.90
10437;DHT22;5265;50.006;9.202;2022-08-19T07:53:13;21.40;99.90
10437;DHT22;5265;50.006;9.202;2022-08-19T07:55:41;21.40;99.90
10437;DHT22;5265;50.006;9.202;2022-08-19T07:58:10;21.40;99.90
10437;DHT22;5265;50.006;9.202;2022-08-19T08:00:37;21.50;99.90
10437;DHT22;5265;50.006;9.202;2022-08-19T08:03:04;21.60;99.90
10437;DHT22;5265;50.006;9.202;2022-08-19T08:05:32;21.70;99.90
10437;DHT22;5265;50.006;9.202;2022-08-19T08:08:16;21.80;99.90
10437;DHT22;5265;50.006;9.202;2022-08-19T08:11:03;21.80;99.90
10437;DHT22;5265;50.006;9.202;2022-08-19T08:13:32;21.80;99.90
10437;DHT22;5265;50.006;9.202;2022-08-19T08:16:01;21.80;99.90
10437;DHT22;5265;50.006;9.202;2022-08-19T08:18:28;21.70;99.90
10437;DHT22;5265;50.006;9.202;2022-08-19T08:20:55;21.70;99.90
10437;DHT22;5265;50.006;9.202;2022-08-19T08:23:22;21.70;99.90
10437;DHT22;5265;50.006;9.202;2022-08-19T08:25:51;21.70;99.90
10437;DHT22;5265;50.006;9.202;2022-08-19T08:28:18;21.70;99.90
10437;DHT22;5265;50.006;9.202;2022-08-19T08:30:46;21.80;99.90
10437;DHT22;5265;50.006;9.202;2022-08-19T08:33:14;21.80;99.90
10437;DHT22;5265;50.006;9.202;2022-08-19T08:35:43;21.90;99.90
10437;DHT22;5265;50.006;9.202;2022-08-19T08:38:11;22.00;99.90
10437;DHT22;5265;50.006;9.202;2022-08-19T08:40:39;22.00;99.90
10437;DHT22;5265;50.006;9.202;2022-08-19T08:43:11;22.20;99.90
10437;DHT22;5265;50.006;9.202;2022-08-19T08:45:41;22.20;99.90
10437;DHT22;5265;50.006;9.202;2022-08-19T08:48:14;22.20;99.90
10437;DHT22;5265;50.006;9.202;2022-08-19T08:50:43;22.20;99.90
10437;DHT22;5265;50.006;9.202;2022-08-19T08:53:13;22.30;99.90
10437;DHT22;5265;50.006;9.202;2022-08-19T08:55:41;22.50;99.90
10437;DHT22;5265;50.006;9.202;2022-08-19T08:58:09;22.60;99.90
10437;DHT22;5265;50.006;9.202;2022-08-19T09:00:41;22.70;99.90
10437;DHT22;5265;50.006;9.202;2022-08-19T09:03:11;22.80;99.90
10437;DHT22;5265;50.006;9.202;2022-08-19T09:05:54;23.00;99.90
10437;DHT22;5265;50.006;9.202;2022-08-19T09:08:25;23.10;99.90
10437;DHT22;5265;50.006;9.202;2022-08-19T09:10:55;23.20;99.90
10437;DHT22;5265;50.006;9.202;2022-08-19T09:13:24;23.10;99.90
10437;DHT22;5265;50.006;9.202;2022-08-19T09:15:58;23.20;99.90
10437;DHT22;5265;50.006;9.202;2022-08-19T09:18:32;23.30;99.90
10437;DHT22;5265;50.006;9.202;2022-08-19T09:21:06;23.40;99.90
10437;DHT22;5265;50.006;9.202;2022-08-19T09:23:34;23.50;99.90
10437;DHT22;5265;50.006;9.202;2022-08-19T09:26:01;23.40;99.90
10437;DHT22;5265;50.006;9.202;2022-08-19T09:28:28;23.40;99.90
10437;DHT22;5265;50.006;9.202;2022-08-19T09:30:57;23.50;99.90
10437;DHT22;5265;50.006;9.202;2022-08-19T09:33:24;23.60;99.90
10437;DHT22;5265;50.006;9.202;2022-08-19T09:36:00;23.60;99.90
10437;DHT22;5265;50.006;9.202;2022-08-19T09:38:30;23.60;99.90
10437;DHT22;5265;50.006;9.202;2022-08-19T09:41:01;23.60;99.90
10437;DHT22;5265;50.006;9.202;2022-08-19T09:43:28;23.60;99.90
10437;DHT22;5265;50.006;9.202;2022-08-19T09:45:56;23.60;99.90
10437;DHT22;5265;50.006;9.202;2022-08-19T09:48:23;23.70;99.90
10437;DHT22;5265;50.006;9.202;2022-08-19T09:50:51;23.80;99.90
10437;DHT22;5265;50.006;9.202;2022-08-19T09:53:18;24.00;99.90
10437;DHT22;5265;50.006;9.202;2022-08-19T09:55:49;24.10;99.90
10437;DHT22;5265;50.006;9.202;2022-08-19T09:58:16;24.00;99.90
10437;DHT22;5265;50.006;9.202;2022-08-19T10:00:43;23.80;99.90
10437;DHT22;5265;50.006;9.202;2022-08-19T10:03:11;23.90;99.90
10437;DHT22;5265;50.006;9.202;2022-08-19T10:05:38;23.90;99.90
10437;DHT22;5265;50.006;9.202;2022-08-19T10:08:15;24.10;99.90
10437;DHT22;5265;50.006;9.202;2022-08-19T10:10:43;24.10;99.90
10437;DHT22;5265;50.006;9.202;2022-08-19T10:13:12;24.30;99.90
10437;DHT22;5265;50.006;9.202;2022-08-19T10:15:39;24.30;99.90
10437;DHT22;5265;50.006;9.202;2022-08-19T10:18:06;24.20;99.90
10437;DHT22;5265;50.006;9.202;2022-08-19T10:20:34;24.30;99.90
10437;DHT22;5265;50.006;9.202;2022-08-19T10:23:02;24.30;99.90
10437;DHT22;5265;50.006;9.202;2022-08-19T10:25:30;24.30;99.90
10437;DHT22;5265;50.006;9.202;2022-08-19T10:27:59;24.20;99.90
10437;DHT22;5265;50.006;9.202;2022-08-19T10:30:28;24.30;99.90
10437;DHT22;5265;50.006;9.202;2022-08-19T10:32:55;24.30;99.90
10437;DHT22;5265;50.006;9.202;2022-08-19T10:35:22;24.40;99.90
10437;DHT22;5265;50.006;9.202;2022-08-19T10:37:50;24.50;99.90
10437;DHT22;5265;50.006;9.202;2022-08-19T10:40:17;24.40;99.90
10437;DHT22;5265;50.006;9.202;2022-08-19T10:42:44;24.60;99.90
10437;DHT22;5265;50.006;9.202;2022-08-19T10:45:12;24.90;99.90
10437;DHT22;5265;50.006;9.202;2022-08-19T10:47:40;24.80;99.90
10437;DHT22;5265;50.006;9.202;2022-08-19T10:50:07;25.10;99.90
10437;DHT22;5265;50.006;9.202;2022-08-19T10:52:52;25.20;99.90
10437;DHT22;5265;50.006;9.202;2022-08-19T10:55:20;25.20;99.90
10437;DHT22;5265;50.006;9.202;2022-08-19T10:58:09;25.20;99.90
10437;DHT22;5265;50.006;9.202;2022-08-19T11:00:36;25.40;99.90
10437;DHT22;5265;50.006;9.202;2022-08-19T11:03:05;25.60;99.90
10437;DHT22;5265;50.006;9.202;2022-08-19T11:05:33;25.70;99.90
10437;DHT22;5265;50.006;9.202;2022-08-19T11:08:00;25.90;99.90
10437;DHT22;5265;50.006;9.202;2022-08-19T11:10:26;25.70;99.90
10437;DHT22;5265;50.006;9.202;2022-08-19T11:12:54;25.80;99.90
10437;DHT22;5265;50.006;9.202;2022-08-19T11:15:21;25.80;99.90
10437;DHT22;5265;50.006;9.202;2022-08-19T11:17:49;25.80;99.90
10437;DHT22;5265;50.006;9.202;2022-08-19T11:20:17;25.90;99.90
10437;DHT22;5265;50.006;9.202;2022-08-19T11:22:45;25.80;99.90
10437;DHT22;5265;50.006;9.202;2022-08-19T11:25:12;25.80;99.90
10437;DHT22;5265;50.006;9.202;2022-08-19T11:27:39;26.00;99.90
10437;DHT22;5265;50.006;9.202;2022-08-19T11:30:09;26.10;99.90
10437;DHT22;5265;50.006;9.202;2022-08-19T11:32:37;26.20;99.90
10437;DHT22;5265;50.006;9.202;2022-08-19T11:35:04;26.00;99.90
10437;DHT22;5265;50.006;9.202;2022-08-19T11:37:32;25.90;99.90
10437;DHT22;5265;50.006;9.202;2022-08-19T11:40:03;25.90;99.90
10437;DHT22;5265;50.006;9.202;2022-08-19T11:42:30;25.90;99.90
10437;DHT22;5265;50.006;9.202;2022-08-19T11:45:11;26.10;99.90
10437;DHT22;5265;50.006;9.202;2022-08-19T11:47:39;26.30;99.90
10437;DHT22;5265;50.006;9.202;2022-08-19T11:50:06;26.60;99.90
10437;DHT22;5265;50.006;9.202;2022-08-19T11:52:35;26.90;99.90
10437;DHT22;5265;50.006;9.202;2022-08-19T11:55:02;27.10;99.90
10437;DHT22;5265;50.006;9.202;2022-08-19T11:57:30;27.00;99.90
10437;DHT22;5265;50.006;9.202;2022-08-19T11:59:56;26.80;99.90
10437;DHT22;5265;50.006;9.202;2022-08-19T12:02:23;26.40;99.90
10437;DHT22;5265;50.006;9.202;2022-08-19T12:04:51;26.60;99.90
10437;DHT22;5265;50.006;9.202;2022-08-19T12:07:18;26.70;99.90
10437;DHT22;5265;50.006;9.202;2022-08-19T12:09:47;26.70;99.90
10437;DHT22;5265;50.006;9.202;2022-08-19T12:12:14;26.70;99.90
10437;DHT22;5265;50.006;9.202;2022-08-19T12:14:41;26.90;99.90
10437;DHT22;5265;50.006;9.202;2022-08-19T12:17:08;27.00;99.90
10437;DHT22;5265;50.006;9.202;2022-08-19T12:19:37;26.90;99.90
10437;DHT22;5265;50.006;9.202;2022-08-19T12:22:05;27.00;99.90
10437;DHT22;5265;50.006;9.202;2022-08-19T12:24:33;27.20;99.90
10437;DHT22;5265;50.006;9.202;2022-08-19T12:27:02;27.30;99.90
10437;DHT22;5265;50.006;9.202;2022-08-19T12:29:29;27.20;99.90
10437;DHT22;5265;50.006;9.202;2022-08-19T12:31:57;27.30;99.90
10437;DHT22;5265;50.006;9.202;2022-08-19T12:34:27;27.50;99.90
10437;DHT22;5265;50.006;9.202;2022-08-19T12:36:55;27.60;99.90
10437;DHT22;5265;50.006;9.202;2022-08-19T12:39:23;27.50;99.90
10437;DHT22;5265;50.006;9.202;2022-08-19T12:41:50;27.50;99.90
10437;DHT22;5265;50.006;9.202;2022-08-19T12:44:18;27.90;99.90
10437;DHT22;5265;50.006;9.202;2022-08-19T12:46:46;28.20;99.90
10437;DHT22;5265;50.006;9.202;2022-08-19T12:49:14;28.50;99.90
10437;DHT22;5265;50.006;9.202;2022-08-19T12:51:42;28.20;99.90
10437;DHT22;5265;50.006;9.202;2022-08-19T12:54:09;27.90;99.90
10437;DHT22;5265;50.006;9.202;2022-08-19T12:56:36;27.80;99.90
10437;DHT22;5265;50.006;9.202;2022-08-19T12:59:04;27.50;99.90
10437;DHT22;5265;50.006;9.202;2022-08-19T13:01:34;27.30;99.90
10437;DHT22;5265;50.006;9.202;2022-08-19T13:04:00;27.30;99.90
10437;DHT22;5265;50.006;9.202;2022-08-19T13:06:28;27.30;99.90
10437;DHT22;5265;50.006;9.202;2022-08-19T13:08:55;27.20;99.90
10437;DHT22;5265;50.006;9.202;2022-08-19T13:11:23;27.20;99.90
10437;DHT22;5265;50.006;9.202;2022-08-19T13:13:51;27.20;99.90
10437;DHT22;5265;50.006;9.202;2022-08-19T13:16:19;27.10;99.90
10437;DHT22;5265;50.006;9.202;2022-08-19T13:18:49;27.00;99.90
10437;DHT22;5265;50.006;9.202;2022-08-19T13:21:18;27.00;99.90
10437;DHT22;5265;50.006;9.202;2022-08-19T13:23:46;27.10;99.90
10437;DHT22;5265;50.006;9.202;2022-08-19T13:26:14;26.90;99.90
10437;DHT22;5265;50.006;9.202;2022-08-19T13:28:41;26.90;99.90
10437;DHT22;5265;50.006;9.202;2022-08-19T13:31:28;26.90;99.90
10437;DHT22;5265;50.006;9.202;2022-08-19T13:34:14;26.80;99.90
10437;DHT22;5265;50.006;9.202;2022-08-19T13:36:42;26.80;99.90
10437;DHT22;5265;50.006;9.202;2022-08-19T13:39:09;26.80;99.90
10437;DHT22;5265;50.006;9.202;2022-08-19T13:41:36;26.70;99.90
10437;DHT22;5265;50.006;9.202;2022-08-19T13:44:04;26.80;99.90
10437;DHT22;5265;50.006;9.202;2022-08-19T13:46:31;26.80;99.90
10437;DHT22;5265;50.006;9.202;2022-08-19T13:48:58;26.90;99.90
10437;DHT22;5265;50.006;9.202;2022-08-19T13:51:27;26.80;99.90
10437;DHT22;5265;50.006;9.202;2022-08-19T13:53:54;26.80;99.90
10437;DHT22;5265;50.006;9.202;2022-08-19T13:56:22;26.90;99.90
10437;DHT22;5265;50.006;9.202;2022-08-19T13:58:49;26.80;99.90
10437;DHT22;5265;50.006;9.202;2022-08-19T14:01:18;26.90;99.90
10437;DHT22;5265;50.006;9.202;2022-08-19T14:03:46;27.10;99.90
10437;DHT22;5265;50.006;9.202;2022-08-19T14:06:13;27.10;99.90
10437;DHT22;5265;50.006;9.202;2022-08-19T14:08:41;27.20;99.90
10437;DHT22;5265;50.006;9.202;2022-08-19T14:11:08;27.30;99.90
10437;DHT22;5265;50.006;9.202;2022-08-19T14:13:36;27.40;99.90
10437;DHT22;5265;50.006;9.202;2022-08-19T14:16:06;27.40;99.90
10437;DHT22;5265;50.006;9.202;2022-08-19T14:18:33;27.40;99.90
10437;DHT22;5265;50.006;9.202;2022-08-19T14:21:00;27.40;99.90
10437;DHT22;5265;50.006;9.202;2022-08-19T14:23:28;27.50;99.90
10437;DHT22;5265;50.006;9.202;2022-08-19T14:26:04;27.60;99.90
10437;DHT22;5265;50.006;9.202;2022-08-19T14:28:31;27.70;99.90
10437;DHT22;5265;50.006;9.202;2022-08-19T14:30:58;27.80;99.90
10437;DHT22;5265;50.006;9.202;2022-08-19T14:33:25;27.80;99.90
10437;DHT22;5265;50.006;9.202;2022-08-19T14:35:52;27.90;99.90
10437;DHT22;5265;50.006;9.202;2022-08-19T14:38:19;27.90;99.90
10437;DHT22;5265;50.006;9.202;2022-08-19T14:40:47;28.10;99.90
10437;DHT22;5265;50.006;9.202;2022-08-19T14:43:16;28.10;99.90
10437;DHT22;5265;50.006;9.202;2022-08-19T14:45:43;28.30;99.90
10437;DHT22;5265;50.006;9.202;2022-08-19T14:48:10;28.50;99.90
10437;DHT22;5265;50.006;9.202;2022-08-19T14:50:38;28.40;99.90
10437;DHT22;5265;50.006;9.202;2022-08-19T14:53:06;28.40;99.90
10437;DHT22;5265;50.006;9.202;2022-08-19T14:55:34;28.70;99.80
10437;DHT22;5265;50.006;9.202;2022-08-19T14:58:01;28.70;99.90
10437;DHT22;5265;50.006;9.202;2022-08-19T15:00:30;28.80;99.80
10437;DHT22;5265;50.006;9.202;2022-08-19T15:02:58;28.80;99.90
10437;DHT22;5265;50.006;9.202;2022-08-19T15:05:25;28.80;99.90
10437;DHT22;5265;50.006;9.202;2022-08-19T15:07:52;28.50;99.80
10437;DHT22;5265;50.006;9.202;2022-08-19T15:10:22;28.40;99.90
10437;DHT22;5265;50.006;9.202;2022-08-19T15:12:50;28.40;99.90
10437;DHT22;5265;50.006;9.202;2022-08-19T15:15:17;28.40;99.90
10437;DHT22;5265;50.006;9.202;2022-08-19T15:17:47;28.30;99.90
10437;DHT22;5265;50.006;9.202;2022-08-19T15:20:15;28.20;99.80
10437;DHT22;5265;50.006;9.202;2022-08-19T15:22:42;28.00;99.90
10437;DHT22;5265;50.006;9.202;2022-08-19T15:25:10;28.00;99.90
10437;DHT22;5265;50.006;9.202;2022-08-19T15:27:38;27.90;99.90
10437;DHT22;5265;50.006;9.202;2022-08-19T15:30:07;27.90;99.30
10437;DHT22;5265;50.006;9.202;2022-08-19T15:32:34;27.80;99.60
10437;DHT22;5265;50.006;9.202;2022-08-19T15:35:04;27.80;99.40
10437;DHT22;5265;50.006;9.202;2022-08-19T15:37:31;27.90;99.10
10437;DHT22;5265;50.006;9.202;2022-08-19T15:39:58;27.80;99.00
10437;DHT22;5265;50.006;9.202;2022-08-19T15:42:25;27.80;99.00
10437;DHT22;5265;50.006;9.202;2022-08-19T15:44:52;27.90;99.10
10437;DHT22;5265;50.006;9.202;2022-08-19T15:47:19;27.90;98.90
10437;DHT22;5265;50.006;9.202;2022-08-19T15:49:47;27.90;98.60
10437;DHT22;5265;50.006;9.202;2022-08-19T15:52:15;27.90;98.40